LFMD/CEQ METAR and TAF weather

Enter ICAO airport designator
Station Type Date Time Source
LFMD METAR 2020/11/27 14:30 UTC NOAA

LFMD 271430Z AUTO 07003KT 360V150 9999 FEW026 16/11 Q1017 BECMG 07015KT


Station Type Date Time Source
LFMD Decoded METAR 2020/11/27 14:30 UTC NOAA

Cannes, France (LFMD) 43-33N 006-57E 9M
Nov 27, 2020 - 09:30 AM EST / 2020.11.27 1430 UTC
Wind: from the ENE (070 degrees) at 3 MPH (3 KT) (direction variable):0
Visibility: greater than 7 mile(s):0
Sky conditions: mostly clear
Temperature: 60 F (16 C)
Dew Point: 51 F (11 C)
Relative Humidity: 72%
Pressure (altimeter): 30.03 in. Hg (1017 hPa)
ob: LFMD 271430Z AUTO 07003KT 360V150 9999 FEW026 16/11 Q1017 BECMG 07015KT
cycle: 14

Station Type Date Time Source
LFMD TAF 2020/11/27 15:26 UTC NOAA

TAF LFMD 271400Z 2715/2815 07015KT 9999 FEW025 BKN070
BECMG 2718/2720 BKN030 PROB40
TEMPO 2718/2815 06020G30KT PROB40
TEMPO 2800/2812 4000 RA

Example: see airport list